| time (UTC) | temp F | wind direction | speed knots | gust knots | rain 1hr in | rain 24hr in | rain mn in | humidity % | barometer mb |
| 20260506211556 | 53 | 16 | 4.3 | 10.4 | 0.00 | 0.65 | 0.65 | 93 | 1006.2 |
| 20260506210058 | 54 | 335 | 8.7 | 13.9 | 0.00 | 0.65 | 0.65 | 92 | 1005.6 |
| 20260506204556 | 54 | 333 | 7.0 | 12.2 | 0.04 | 0.65 | 0.65 | 92 | 1005.3 |
| 20260506203112 | 55 | 317 | 5.2 | 12.2 | 0.04 | 0.65 | 0.65 | 93 | 1005.2 |
| 20260506201551 | 55 | 326 | 11.3 | 15.6 | 0.04 | 0.65 | 0.65 | 93 | 1005.1 |
| 20260506200055 | 55 | 332 | 10.4 | 15.6 | 0.03 | 0.64 | 0.64 | 95 | 1004.9 |
| 20260506194550 | 58 | 360 | 7.0 | 12.2 | 0.00 | 0.61 | 0.61 | 95 | 1004.8 |
| 20260506193050 | 60 | 225 | 0.9 | 2.6 | 0.00 | 0.61 | 0.61 | 96 | 1004.8 |
| 20260506191546 | 59 | 169 | 1.7 | 3.5 | 0.01 | 0.61 | 0.61 | 96 | 1004.8 |
| 20260506190049 | 59 | 164 | 2.6 | 5.2 | 0.04 | 0.61 | 0.61 | 96 | 1004.7 |
| 20260506184548 | 59 | 166 | 1.7 | 4.3 | 0.06 | 0.61 | 0.61 | 96 | 1005.0 |
| 20260506183045 | 58 | 184 | 3.5 | 5.2 | 0.09 | 0.61 | 0.61 | 96 | 1005.0 |
| 20260506181548 | 57 | 171 | 1.7 | 4.3 | 0.09 | 0.60 | 0.60 | 96 | 1005.2 |
| 20260506180040 | 57 | 171 | 0.0 | 1.7 | 0.07 | 0.56 | 0.56 | 96 | 1005.4 |
| 20260506174540 | 58 | 171 | 0.0 | 2.6 | 0.07 | 0.54 | 0.54 | 96 | 1005.4 |
| 20260506173044 | 57 | 171 | 0.0 | 1.7 | 0.09 | 0.52 | 0.52 | 96 | 1005.3 |
| 20260506171537 | 57 | 171 | 0.0 | 1.7 | 0.10 | 0.51 | 0.51 | 95 | 1005.4 |
| 20260506170026 | 56 | 171 | 0.0 | 0.9 | 0.10 | 0.49 | 0.49 | 95 | 1005.7 |
| 20260506164538 | 56 | 171 | 0.0 | 0.9 | 0.09 | 0.46 | 0.46 | 95 | 1005.9 |
| 20260506163016 | 56 | 171 | 0.0 | 0.9 | 0.09 | 0.43 | 0.43 | 95 | 1006.1 |
| 20260506161517 | 56 | 171 | 0.0 | 1.7 | 0.10 | 0.41 | 0.41 | 95 | 1006.0 |
| 20260506160013 | 55 | 171 | 0.0 | 0.9 | 0.10 | 0.39 | 0.39 | 95 | 1006.4 |
| 20260506154512 | 56 | 171 | 0.0 | 0.9 | 0.10 | 0.37 | 0.37 | 94 | 1006.4 |
| 20260506153010 | 55 | 171 | 0.0 | 1.7 | 0.10 | 0.34 | 0.34 | 94 | 1006.8 |
| 20260506151508 | 55 | 171 | 0.0 | 1.7 | 0.09 | 0.31 | 0.31 | 94 | 1006.9 |
| 20260506150008 | 55 | 171 | 0.0 | 0.9 | 0.10 | 0.28 | 0.28 | 93 | 1007.0 |
| 20260506144511 | 54 | 171 | 0.0 | 0.9 | 0.10 | 0.27 | 0.27 | 94 | 1007.2 |
| 20260506143007 | 55 | 171 | 0.0 | 1.7 | 0.10 | 0.24 | 0.24 | 94 | 1007.6 |
| 20260506141522 | 54 | 171 | 0.0 | 0.0 | 0.10 | 0.22 | 0.22 | 93 | 1007.8 |
| 20260506140005 | 54 | 171 | 0.0 | 0.0 | 0.09 | 0.19 | 0.19 | 93 | 1007.9 |
| 20260506134504 | 54 | 171 | 0.0 | 0.0 | 0.09 | 0.17 | 0.17 | 93 | 1007.7 |
| 20260506133005 | 54 | 171 | 0.0 | 0.0 | 0.07 | 0.14 | 0.14 | 92 | 1007.7 |
| 20260506131507 | 55 | 171 | 0.0 | 0.0 | 0.07 | 0.12 | 0.12 | 92 | 1007.3 |
| 20260506130004 | 54 | 171 | 0.0 | 0.0 | 0.07 | 0.10 | 0.10 | 91 | 1007.5 |
| 20260506124502 | 54 | 171 | 0.0 | 0.9 | 0.06 | 0.08 | 0.08 | 92 | 1007.3 |
| 20260506123004 | 54 | 171 | 0.0 | 0.0 | 0.05 | 0.07 | 0.07 | 92 | 1007.8 |
| 20260506121602 | 53 | 171 | 0.0 | 0.9 | 0.03 | 0.05 | 0.05 | 91 | 1008.1 |
| 20260506120110 | 54 | 286 | 0.0 | 2.6 | 0.01 | 0.03 | 0.03 | 91 | 1008.3 |
| 20260506114559 | 54 | 180 | 0.0 | 1.7 | 0.00 | 0.02 | 0.02 | 90 | 1007.9 |
| 20260506113058 | 54 | 247 | 1.7 | 4.3 | 0.00 | 0.02 | 0.02 | 89 | 1007.7 |
| 20260506111558 | 54 | 212 | 0.9 | 4.3 | 0.00 | 0.02 | 0.02 | 89 | 1007.6 |
| 20260506110112 | 54 | 46 | 0.0 | 2.6 | 0.00 | 0.05 | 0.02 | 88 | 1007.6 |
| 20260506104612 | 54 | 61 | 0.0 | 5.2 | 0.00 | 0.05 | 0.02 | 88 | 1007.8 |
| 20260506103055 | 54 | 329 | 2.6 | 4.3 | 0.00 | 0.05 | 0.02 | 88 | 1007.5 |
| 20260506101554 | 54 | 10 | 2.6 | 7.8 | 0.00 | 0.05 | 0.02 | 88 | 1007.3 |
| 20260506094600 | 54 | 251 | 0.0 | 1.7 | 0.00 | 0.07 | 0.02 | 87 | 1007.1 |
| 20260506093052 | 54 | 240 | 0.0 | 1.7 | 0.00 | 0.07 | 0.02 | 87 | 1007.1 |
| 20260506091551 | 54 | 157 | 0.0 | 2.6 | 0.00 | 0.07 | 0.02 | 87 | 1007.2 |
| 20260506090049 | 54 | 183 | 0.0 | 1.7 | 0.00 | 0.07 | 0.02 | 87 | 1007.1 |
| 20260506084616 | 54 | 288 | 0.0 | 2.6 | 0.00 | 0.07 | 0.02 | 87 | 1007.1 |
| 20260506083048 | 54 | 209 | 0.0 | 2.6 | 0.00 | 0.07 | 0.02 | 86 | 1007.5 |
| 20260506081554 | 54 | 266 | 0.9 | 3.5 | 0.00 | 0.07 | 0.02 | 86 | 1007.8 |
| 20260506073043 | 55 | 273 | 0.0 | 2.6 | 0.00 | 0.07 | 0.02 | 88 | 1008.3 |
| 20260506071541 | 55 | 232 | 0.0 | 0.0 | 0.00 | 0.07 | 0.02 | 88 | 1008.2 |
| 20260506061536 | 56 | 194 | 0.0 | 0.0 | 0.00 | 0.07 | 0.02 | 88 | 1008.7 |
| 20260506044535 | 57 | 183 | 0.0 | 5.2 | 0.02 | 0.07 | 0.02 | 82 | 1008.5 |
| 20260506043027 | 57 | 348 | 3.5 | 9.6 | 0.02 | 0.07 | 0.02 | 82 | 1008.5 |
| 20260506041522 | 58 | 345 | 7.8 | 12.2 | 0.00 | 0.05 | 0.00 | 81 | 1008.3 |
| 20260506040020 | 59 | 342 | 7.0 | 14.8 | 0.00 | 0.05 | 0.05 | 80 | 1008.3 |
| 20260506034521 | 61 | 333 | 7.8 | 13.9 | 0.00 | 0.05 | 0.05 | 75 | 1008.6 |
| 20260506033019 | 61 | 348 | 7.0 | 11.3 | 0.00 | 0.05 | 0.05 | 75 | 1008.6 |
| 20260506031518 | 62 | 325 | 2.6 | 8.7 | 0.00 | 0.05 | 0.05 | 75 | 1008.6 |
| 20260506030018 | 62 | 311 | 0.9 | 8.7 | 0.00 | 0.05 | 0.05 | 75 | 1008.6 |
| 20260506024517 | 64 | 345 | 5.2 | 13.0 | 0.00 | 0.05 | 0.05 | 76 | 1008.2 |
| 20260506023027 | 65 | 291 | 2.6 | 10.4 | 0.00 | 0.05 | 0.05 | 73 | 1008.2 |
| 20260506021521 | 66 | 339 | 3.5 | 7.0 | 0.00 | 0.05 | 0.05 | 72 | 1008.1 |
| 20260506020014 | 66 | 242 | 0.0 | 3.5 | 0.00 | 0.05 | 0.05 | 70 | 1007.9 |
| 20260506014513 | 67 | 227 | 2.6 | 3.5 | 0.00 | 0.05 | 0.05 | 69 | 1007.6 |
| 20260506013014 | 67 | 182 | 0.0 | 2.6 | 0.00 | 0.05 | 0.05 | 67 | 1007.3 |
| 20260506011510 | 68 | 230 | 0.9 | 5.2 | 0.00 | 0.05 | 0.05 | 65 | 1007.0 |
| 20260506010013 | 68 | 179 | 3.5 | 7.0 | 0.00 | 0.05 | 0.05 | 64 | 1006.7 |
| 20260506004511 | 68 | 201 | 3.5 | 7.8 | 0.00 | 0.05 | 0.05 | 65 | 1006.7 |
| 20260506003010 | 67 | 216 | 3.5 | 7.0 | 0.00 | 0.05 | 0.05 | 67 | 1006.7 |
| 20260506001507 | 66 | 165 | 2.6 | 4.3 | 0.00 | 0.05 | 0.05 | 70 | 1006.3 |
| 20260506000007 | 67 | 173 | 1.7 | 4.3 | 0.00 | 0.05 | 0.05 | 67 | 1006.0 |
| 20260505234507 | 69 | 227 | 1.7 | 7.0 | 0.00 | 0.05 | 0.05 | 62 | 1006.0 |
| 20260505233008 | 69 | 206 | 2.6 | 6.1 | 0.00 | 0.05 | 0.05 | 62 | 1005.9 |
| 20260505231507 | 69 | 230 | 4.3 | 8.7 | 0.00 | 0.05 | 0.05 | 63 | 1005.5 |
| 20260505230010 | 69 | 186 | 7.0 | 13.0 | 0.00 | 0.05 | 0.05 | 63 | 1005.4 |
| 20260505224505 | 68 | 198 | 6.1 | 12.2 | 0.00 | 0.05 | 0.05 | 65 | 1005.1 |
| 20260505223005 | 67 | 246 | 5.2 | 10.4 | 0.00 | 0.05 | 0.05 | 68 | 1005.1 |
| 20260505221503 | 67 | 247 | 1.7 | 10.4 | 0.00 | 0.05 | 0.05 | 71 | 1005.7 |
| 20260505220002 | 67 | 140 | 8.7 | 14.8 | 0.00 | 0.05 | 0.05 | 72 | 1006.0 |
| 20260505214503 | 67 | 276 | 6.1 | 13.9 | 0.00 | 0.05 | 0.05 | 70 | 1005.6 |
| 20260505213004 | 67 | 218 | 4.3 | 15.6 | 0.00 | 0.05 | 0.05 | 70 | 1005.9 |